Time;durP1;ratioP1;P1;durP2;ratioP2;P2;SDS_P1;SDS_P2;PMS_P1;PMS_P2;Temp;Humidity;BMP_temperature;BMP_pressure;BME280_temperature;BME280_humidity;BME280_pressure;Samples;Min_cycle;Max_cycle;Signal;HPM_P1;HPM_P2
2023/03/18 00:00:49;;;;;;;1.60;0.60;;;18.70;62.10;;;;;;5034088;28;20041;-64
2023/03/18 00:03:16;;;;;;;1.42;0.65;;;18.70;62.20;;;;;;5052030;28;20075;-64
2023/03/18 00:05:43;;;;;;;0.93;0.40;;;18.70;62.10;;;;;;5052234;28;20128;-64
2023/03/18 00:08:12;;;;;;;1.90;0.50;;;18.70;62.10;;;;;;5034158;28;20057;-64
2023/03/18 00:10:39;;;;;;;1.35;0.52;;;18.70;62.10;;;;;;5033781;28;20049;-64
2023/03/18 00:13:06;;;;;;;1.63;0.88;;;18.70;62.20;;;;;;5052088;28;20049;-64
2023/03/18 00:15:33;;;;;;;1.20;0.73;;;18.70;62.10;;;;;;5033551;28;20072;-64
2023/03/18 00:18:01;;;;;;;1.13;0.65;;;18.70;62.20;;;;;;5033734;28;20068;-64
2023/03/18 00:20:38;;;;;;;1.88;0.70;;;18.70;62.10;;;;;;5051652;28;20802;-64
2023/03/18 00:23:07;;;;;;;1.77;0.85;;;18.70;62.10;;;;;;5051449;28;20053;-64
2023/03/18 00:25:36;;;;;;;1.33;0.52;;;18.70;62.10;;;;;;5051474;28;20141;-64
2023/03/18 00:28:03;;;;;;;1.95;0.88;;;18.70;62.10;;;;;;5033609;28;20055;-64
2023/03/18 00:30:30;;;;;;;2.15;0.80;;;18.60;62.10;;;;;;5033390;28;20049;-64
2023/03/18 00:32:57;;;;;;;1.48;0.95;;;18.60;62.10;;;;;;5051205;28;20056;-64
2023/03/18 00:35:26;;;;;;;1.33;0.40;;;18.70;62.10;;;;;;5051637;28;20049;-64
2023/03/18 00:37:54;;;;;;;1.95;0.60;;;18.60;62.10;;;;;;5033300;28;20107;-64
2023/03/18 00:40:27;;;;;;;1.00;0.20;;;18.60;62.10;;;;;;5033489;28;20076;-64
2023/03/18 00:43:06;;;;;;;1.58;0.60;;;18.60;62.10;;;;;;5033391;28;20053;-64
2023/03/18 00:45:34;;;;;;;1.30;0.20;;;18.70;62.10;;;;;;5051046;28;20085;-64
2023/03/18 00:48:01;;;;;;;1.40;1.15;;;18.60;62.10;;;;;;5033330;28;20088;-64
2023/03/18 00:50:28;;;;;;;1.33;0.30;;;18.60;62.10;;;;;;5033104;28;20103;-63
2023/03/18 00:52:55;;;;;;;1.52;0.70;;;18.60;62.00;;;;;;5033505;28;20088;-64
2023/03/18 00:55:22;;;;;;;1.95;0.73;;;18.60;62.10;;;;;;5033085;28;20485;-65
2023/03/18 00:57:50;;;;;;;2.20;0.82;;;18.60;62.00;;;;;;5050904;28;20095;-63
2023/03/18 01:00:20;;;;;;;1.42;0.50;;;18.60;62.10;;;;;;5032863;28;20049;-64
2023/03/18 01:02:48;;;;;;;1.38;0.60;;;18.60;62.10;;;;;;5033342;28;20140;-64
2023/03/18 01:05:16;;;;;;;1.83;0.70;;;18.60;62.10;;;;;;5033155;28;20057;-64
2023/03/18 01:07:43;;;;;;;1.80;0.80;;;18.60;62.10;;;;;;5050782;28;20057;-64
2023/03/18 01:10:13;;;;;;;1.88;0.55;;;18.60;62.10;;;;;;5050779;28;20464;-64
2023/03/18 01:12:40;;;;;;;1.52;0.82;;;18.60;62.00;;;;;;5050862;28;20049;-64
2023/03/18 01:15:08;;;;;;;1.58;1.48;;;18.60;62.10;;;;;;5032614;28;20057;-64
2023/03/18 01:17:37;;;;;;;1.85;0.90;;;18.60;62.00;;;;;;5050736;28;20041;-64
2023/03/18 01:20:05;;;;;;;1.63;0.43;;;18.60;62.00;;;;;;5050491;28;20414;-64
2023/03/18 01:22:32;;;;;;;1.30;0.68;;;18.60;62.10;;;;;;5050618;28;20461;-64
2023/03/18 01:24:59;;;;;;;1.00;0.52;;;18.60;62.00;;;;;;5050575;28;20059;-64
2023/03/18 01:27:26;;;;;;;1.23;0.60;;;18.60;62.00;;;;;;5050629;28;20056;-64
2023/03/18 01:29:53;;;;;;;0.80;0.30;;;18.60;62.00;;;;;;5050362;28;20547;-64
2023/03/18 01:32:20;;;;;;;1.52;0.70;;;18.60;62.00;;;;;;5050422;28;20053;-64
2023/03/18 01:34:49;;;;;;;1.63;1.20;;;18.60;62.10;;;;;;5050267;28;20060;-64
2023/03/18 01:37:16;;;;;;;2.13;0.80;;;18.60;62.00;;;;;;5050597;28;20053;-64
2023/03/18 01:39:43;;;;;;;1.25;0.82;;;18.60;62.00;;;;;;5050225;28;20132;-65
2023/03/18 01:42:10;;;;;;;2.17;0.85;;;18.60;62.00;;;;;;5049542;28;20068;-64
2023/03/18 01:44:37;;;;;;;1.52;0.70;;;18.60;62.00;;;;;;5050103;28;20064;-64
2023/03/18 01:47:04;;;;;;;1.98;0.73;;;18.60;62.00;;;;;;5050004;28;20056;-64
2023/03/18 01:49:35;;;;;;;1.85;0.75;;;18.50;62.00;;;;;;5032529;28;20053;-64
2023/03/18 01:52:07;;;;;;;1.73;0.43;;;18.60;62.10;;;;;;5050173;28;20401;-64
2023/03/18 01:54:45;;;;;;;1.30;0.50;;;18.50;62.00;;;;;;5032125;28;20049;-64
2023/03/18 01:57:12;;;;;;;2.67;0.82;;;18.50;62.00;;;;;;5064904;28;20041;-64
2023/03/18 01:59:41;;;;;;;1.65;0.73;;;18.60;62.00;;;;;;5070178;28;20052;-64
2023/03/18 02:02:10;;;;;;;1.10;0.50;;;18.60;62.10;;;;;;5070026;28;20084;-64
2023/03/18 02:04:40;;;;;;;1.23;0.32;;;18.60;62.10;;;;;;5069866;28;20055;-64
2023/03/18 02:07:15;;;;;;;1.13;0.75;;;18.50;62.00;;;;;;5052280;28;20052;-64
2023/03/18 02:09:42;;;;;;;1.20;0.35;;;18.60;62.10;;;;;;5052249;28;20539;-64
2023/03/18 02:12:10;;;;;;;1.10;0.70;;;18.50;62.00;;;;;;5069885;28;20068;-64
2023/03/18 02:14:38;;;;;;;1.33;0.65;;;18.50;62.10;;;;;;5069782;28;20644;-64
2023/03/18 02:17:10;;;;;;;1.20;0.47;;;18.50;62.00;;;;;;5069750;28;20040;-64
2023/03/18 02:19:49;;;;;;;1.50;0.75;;;18.50;62.00;;;;;;5069784;28;20056;-64
2023/03/18 02:22:25;;;;;;;1.40;0.70;;;18.50;62.10;;;;;;5070025;28;20045;-64
2023/03/18 02:25:01;;;;;;;1.90;0.82;;;18.50;62.10;;;;;;5051799;28;20048;-64
2023/03/18 02:27:32;;;;;;;1.30;0.20;;;18.50;62.00;;;;;;5051896;28;20059;-64
2023/03/18 02:30:03;;;;;;;1.55;0.73;;;18.50;62.00;;;;;;5051844;28;20052;-64
2023/03/18 02:32:31;;;;;;;1.75;0.70;;;18.50;62.00;;;;;;5069561;28;20049;-64
2023/03/18 02:35:01;;;;;;;1.38;0.82;;;18.50;62.00;;;;;;5069671;28;20060;-64
2023/03/18 02:37:28;;;;;;;1.05;0.43;;;18.50;62.10;;;;;;5069586;28;20078;-64
2023/03/18 02:39:55;;;;;;;1.20;0.85;;;18.50;62.00;;;;;;5069450;28;20056;-64
2023/03/18 02:42:31;;;;;;;1.77;1.13;;;18.50;62.10;;;;;;5052130;28;20057;-64
2023/03/18 02:44:59;;;;;;;1.42;0.77;;;18.50;62.10;;;;;;5069249;28;20053;-64
2023/03/18 02:47:28;;;;;;;1.77;0.88;;;18.50;62.10;;;;;;5052921;28;20061;-64
2023/03/18 02:49:56;;;;;;;2.53;0.85;;;18.50;62.10;;;;;;5031884;28;20104;-64
2023/03/18 02:52:23;;;;;;;1.73;0.98;;;18.50;62.10;;;;;;5032086;28;20053;-64
2023/03/18 02:54:50;;;;;;;1.77;0.82;;;18.50;62.10;;;;;;5035564;28;20049;-63
2023/03/18 02:57:17;;;;;;;1.48;0.73;;;18.40;62.00;;;;;;5053381;28;20053;-64
2023/03/18 02:59:46;;;;;;;1.60;0.80;;;18.50;62.10;;;;;;5053341;28;20048;-64
2023/03/18 03:02:13;;;;;;;2.25;0.90;;;18.50;62.10;;;;;;5035384;28;20067;-64
2023/03/18 03:04:40;;;;;;;1.35;0.77;;;18.50;62.20;;;;;;5053116;28;20052;-64
2023/03/18 03:07:07;;;;;;;1.75;1.00;;;18.50;62.10;;;;;;5053115;28;20052;-64
2023/03/18 03:09:34;;;;;;;1.15;0.57;;;18.50;62.10;;;;;;5035190;28;20052;-64
2023/03/18 03:12:01;;;;;;;1.23;0.60;;;18.40;62.10;;;;;;5035313;28;20053;-64
2023/03/18 03:14:28;;;;;;;1.67;0.70;;;18.40;62.10;;;;;;5035086;28;20107;-64
2023/03/18 03:16:56;;;;;;;1.73;0.60;;;18.50;62.10;;;;;;5052998;28;20045;-64
2023/03/18 03:19:23;;;;;;;1.63;1.10;;;18.40;62.10;;;;;;5035241;28;20049;-64
2023/03/18 03:21:51;;;;;;;1.35;0.65;;;18.40;62.10;;;;;;5052805;28;20060;-64
2023/03/18 03:24:18;;;;;;;1.33;0.60;;;18.40;62.10;;;;;;5052907;28;20147;-64
2023/03/18 03:26:44;;;;;;;1.70;0.85;;;18.50;62.20;;;;;;5034760;28;20053;-64
2023/03/18 03:29:12;;;;;;;1.10;0.25;;;18.40;62.10;;;;;;5052501;28;20462;-64
2023/03/18 03:31:39;;;;;;;2.10;0.98;;;18.40;62.10;;;;;;5052789;28;20072;-64
2023/03/18 03:34:07;;;;;;;1.52;0.70;;;18.40;62.10;;;;;;5035016;28;20142;-64
2023/03/18 03:36:34;;;;;;;1.30;0.70;;;18.40;62.10;;;;;;5052741;28;20057;-64
2023/03/18 03:39:02;;;;;;;1.60;0.77;;;18.40;62.10;;;;;;5052449;28;20053;-64
2023/03/18 03:41:30;;;;;;;1.42;0.65;;;18.40;62.10;;;;;;5051285;28;20084;-64
2023/03/18 03:43:57;;;;;;;3.15;0.85;;;18.40;62.10;;;;;;5034732;28;20056;-64
2023/03/18 03:46:24;;;;;;;1.83;0.90;;;18.40;62.10;;;;;;5051926;28;20053;-64
2023/03/18 03:48:51;;;;;;;1.20;0.40;;;18.40;62.10;;;;;;5034808;28;20084;-64
2023/03/18 03:51:19;;;;;;;1.75;0.50;;;18.40;62.10;;;;;;5052196;28;20041;-64
2023/03/18 03:53:46;;;;;;;1.17;0.50;;;18.40;62.10;;;;;;5052381;28;20060;-64
2023/03/18 03:56:14;;;;;;;1.85;0.70;;;18.40;62.10;;;;;;5052192;28;20057;-64
2023/03/18 03:58:41;;;;;;;1.00;0.25;;;18.40;62.10;;;;;;5052242;28;20045;-64
2023/03/18 04:01:08;;;;;;;1.13;0.25;;;18.40;62.10;;;;;;5052461;28;20049;-64
2023/03/18 04:03:35;;;;;;;2.00;0.80;;;18.40;62.10;;;;;;5052091;28;20498;-64
2023/03/18 04:06:02;;;;;;;1.83;0.93;;;18.40;62.10;;;;;;5051290;28;20497;-64
2023/03/18 04:08:30;;;;;;;1.52;0.38;;;18.40;62.10;;;;;;5052191;28;20405;-64
2023/03/18 04:10:58;;;;;;;1.80;1.10;;;18.40;62.10;;;;;;5034069;28;20056;-64
2023/03/18 04:13:25;;;;;;;1.30;0.60;;;18.40;62.10;;;;;;5034001;28;20060;-64
2023/03/18 04:15:52;;;;;;;1.40;0.75;;;18.40;62.30;;;;;;5052032;28;20068;-65
2023/03/18 04:18:19;;;;;;;1.40;0.73;;;18.40;62.10;;;;;;5034309;28;20055;-64
2023/03/18 04:20:46;;;;;;;1.55;0.70;;;18.40;62.20;;;;;;5051716;28;20061;-64
2023/03/18 04:23:14;;;;;;;1.33;0.88;;;18.40;62.20;;;;;;5051714;28;20052;-64
2023/03/18 04:25:43;;;;;;;2.10;0.32;;;18.40;62.20;;;;;;5051695;28;20057;-64
2023/03/18 04:28:10;;;;;;;1.70;0.70;;;18.40;62.20;;;;;;5033640;28;20084;-64
2023/03/18 04:30:37;;;;;;;1.67;0.60;;;18.30;62.10;;;;;;5034165;28;20481;-64
2023/03/18 04:33:04;;;;;;;1.52;0.80;;;18.30;62.10;;;;;;5033620;28;20049;-64
2023/03/18 04:35:32;;;;;;;1.40;0.70;;;18.30;62.10;;;;;;5051512;28;20064;-64
2023/03/18 04:38:00;;;;;;;2.03;1.23;;;18.30;62.10;;;;;;5033738;28;20060;-64
2023/03/18 04:40:27;;;;;;;1.60;1.08;;;18.40;62.20;;;;;;5051371;28;20053;-64
2023/03/18 04:42:55;;;;;;;1.42;0.70;;;18.30;62.10;;;;;;5033909;28;20053;-64
2023/03/18 04:45:23;;;;;;;1.30;0.22;;;18.30;62.10;;;;;;5051207;28;20053;-64
2023/03/18 04:47:50;;;;;;;1.15;0.28;;;18.30;62.10;;;;;;5033598;28;20505;-64
2023/03/18 04:50:17;;;;;;;1.70;0.47;;;18.30;62.10;;;;;;5051189;28;20518;-64
2023/03/18 04:52:45;;;;;;;1.90;1.00;;;18.30;62.10;;;;;;5051427;28;20049;-64
2023/03/18 04:55:15;;;;;;;1.45;0.65;;;18.30;62.10;;;;;;5051437;28;20059;-64
2023/03/18 04:57:42;;;;;;;1.63;1.02;;;18.30;62.10;;;;;;5051110;28;20079;-64
2023/03/18 05:00:14;;;;;;;1.50;0.88;;;18.30;62.10;;;;;;5033492;28;20514;-64
2023/03/18 05:02:41;;;;;;;1.17;0.30;;;18.30;62.10;;;;;;5051056;28;20512;-64
2023/03/18 05:05:09;;;;;;;1.15;0.75;;;18.30;62.20;;;;;;5051523;28;20057;-64
2023/03/18 05:07:36;;;;;;;1.80;0.93;;;18.30;62.20;;;;;;5051135;28;20512;-64
2023/03/18 05:10:05;;;;;;;1.60;0.80;;;18.30;62.10;;;;;;5051171;28;20045;-64
2023/03/18 05:12:33;;;;;;;1.20;0.57;;;18.30;62.20;;;;;;5051063;28;20126;-64
2023/03/18 05:15:00;;;;;;;1.40;0.68;;;18.30;62.20;;;;;;5033080;28;20049;-64
2023/03/18 05:17:28;;;;;;;1.55;0.40;;;18.30;62.20;;;;;;5033031;28;20087;-64
2023/03/18 05:19:56;;;;;;;2.10;0.40;;;18.30;62.20;;;;;;5033317;28;20489;-64
2023/03/18 05:22:23;;;;;;;0.93;0.20;;;18.20;62.10;;;;;;5051292;28;20053;-64
2023/03/18 05:24:50;;;;;;;1.25;0.30;;;18.30;62.20;;;;;;5051009;28;20048;-64
2023/03/18 05:27:18;;;;;;;1.38;0.77;;;18.30;62.20;;;;;;5032775;28;20045;-65
2023/03/18 05:29:46;;;;;;;1.73;0.95;;;18.30;62.20;;;;;;5033203;28;20068;-64
2023/03/18 05:32:15;;;;;;;2.00;0.70;;;18.20;62.20;;;;;;5032785;28;20053;-64
2023/03/18 05:34:43;;;;;;;1.23;0.70;;;18.20;62.20;;;;;;5050532;28;20588;-64
2023/03/18 05:37:12;;;;;;;1.42;0.30;;;18.20;62.20;;;;;;5050884;28;20049;-64
2023/03/18 05:39:40;;;;;;;1.63;0.95;;;18.20;62.20;;;;;;5050417;28;20057;-64
2023/03/18 05:42:08;;;;;;;1.45;0.65;;;18.20;62.20;;;;;;5050473;28;20140;-64
2023/03/18 05:44:35;;;;;;;1.90;0.80;;;18.20;62.10;;;;;;5032687;28;20080;-64
2023/03/18 05:47:02;;;;;;;1.77;0.80;;;18.20;62.10;;;;;;5049826;28;20485;-64
2023/03/18 05:49:30;;;;;;;2.20;0.52;;;18.20;62.10;;;;;;5032781;28;20079;-64
2023/03/18 05:51:58;;;;;;;1.63;0.43;;;18.20;62.10;;;;;;5032598;28;20391;-64
2023/03/18 05:54:25;;;;;;;1.20;0.22;;;18.20;62.20;;;;;;5050247;28;20144;-65
2023/03/18 05:56:53;;;;;;;1.38;0.75;;;18.20;62.10;;;;;;5032531;28;20064;-64
2023/03/18 05:59:22;;;;;;;1.10;0.20;;;18.20;62.20;;;;;;5032599;28;20532;-65
2023/03/18 06:01:50;;;;;;;1.67;1.02;;;18.30;62.20;;;;;;5032687;28;20053;-65
2023/03/18 06:04:18;;;;;;;1.42;0.35;;;18.30;62.20;;;;;;5050208;28;20072;-64
2023/03/18 06:06:45;;;;;;;1.40;1.00;;;18.20;62.20;;;;;;5050446;28;20056;-64
2023/03/18 06:09:14;;;;;;;1.65;0.73;;;18.20;62.20;;;;;;5032489;28;20056;-64
2023/03/18 06:11:41;;;;;;;1.50;0.30;;;18.20;62.20;;;;;;5049986;28;20102;-64
2023/03/18 06:14:08;;;;;;;1.27;0.80;;;18.20;62.10;;;;;;5050125;28;20053;-64
2023/03/18 06:16:36;;;;;;;1.10;0.65;;;18.20;62.20;;;;;;5050035;28;20252;-64
2023/03/18 06:19:03;;;;;;;2.08;1.25;;;18.20;62.10;;;;;;5032414;28;20052;-64
2023/03/18 06:21:31;;;;;;;1.67;0.40;;;18.20;62.20;;;;;;5032115;28;20075;-64
2023/03/18 06:23:59;;;;;;;1.02;0.52;;;18.20;62.20;;;;;;5050030;28;20107;-64
2023/03/18 06:26:27;;;;;;;1.90;1.10;;;18.20;62.10;;;;;;5048679;28;20053;-65
2023/03/18 06:28:55;;;;;;;2.17;1.02;;;18.20;62.20;;;;;;5038694;28;20528;-64
2023/03/18 06:31:22;;;;;;;1.85;0.35;;;18.20;62.20;;;;;;5047477;28;20404;-64
2023/03/18 06:33:49;;;;;;;1.00;0.70;;;18.20;62.20;;;;;;5034157;28;20055;-64
2023/03/18 06:36:16;;;;;;;1.00;0.38;;;18.20;62.10;;;;;;5034413;28;20470;-64
2023/03/18 06:38:44;;;;;;;1.33;0.55;;;18.20;62.20;;;;;;5034177;28;20050;-63
2023/03/18 06:41:12;;;;;;;0.98;0.25;;;18.20;62.20;;;;;;5032851;28;20140;-64
2023/03/18 06:43:40;;;;;;;1.20;0.40;;;18.20;62.20;;;;;;5033728;28;20422;-64
2023/03/18 06:46:07;;;;;;;1.30;0.50;;;18.20;62.20;;;;;;5014556;28;20576;-63
2023/03/18 06:48:35;;;;;;;1.35;0.60;;;18.20;62.20;;;;;;5013852;28;20057;-64
2023/03/18 06:51:02;;;;;;;2.03;0.75;;;18.20;62.20;;;;;;5013959;28;20061;-64
2023/03/18 06:53:29;;;;;;;1.33;0.60;;;18.20;62.20;;;;;;5012596;28;20069;-64
2023/03/18 06:55:56;;;;;;;1.60;0.80;;;18.20;62.10;;;;;;5012474;28;20050;-64
2023/03/18 06:58:24;;;;;;;1.30;0.85;;;18.20;62.10;;;;;;5012279;28;20120;-64
2023/03/18 07:00:53;;;;;;;1.10;0.75;;;18.20;62.20;;;;;;5013606;28;20060;-64
2023/03/18 07:03:20;;;;;;;1.48;0.85;;;18.20;62.10;;;;;;5013532;28;20056;-64
2023/03/18 07:05:47;;;;;;;1.20;0.30;;;18.20;62.10;;;;;;5012523;28;20053;-64
2023/03/18 07:08:15;;;;;;;1.92;0.98;;;18.20;62.10;;;;;;5012339;28;20600;-64
2023/03/18 07:10:42;;;;;;;1.30;0.50;;;18.20;62.10;;;;;;5012391;28;20054;-64
2023/03/18 07:13:12;;;;;;;1.48;0.70;;;18.20;62.10;;;;;;5012536;28;20057;-63
2023/03/18 07:15:39;;;;;;;1.30;0.60;;;18.20;62.10;;;;;;5012032;28;20076;-64
2023/03/18 07:18:08;;;;;;;1.65;0.93;;;18.20;62.10;;;;;;5012440;28;20050;-64
2023/03/18 07:20:35;;;;;;;;;;;18.20;62.10;;;;;;5012677;28;20057;-64
2023/03/18 07:23:03;;;;;;;1.30;0.70;;;18.20;62.00;;;;;;5012204;28;20378;-64
2023/03/18 07:25:31;;;;;;;1.00;0.22;;;18.20;62.00;;;;;;5012245;28;20053;-64
2023/03/18 07:27:59;;;;;;;1.48;0.70;;;18.20;62.10;;;;;;5011751;28;20064;-64
2023/03/18 07:30:27;;;;;;;1.05;0.30;;;18.20;62.10;;;;;;5013425;28;20061;-64
2023/03/18 07:32:54;;;;;;;1.63;0.80;;;18.20;62.10;;;;;;5048326;28;20056;-64
2023/03/18 07:35:23;;;;;;;1.25;0.70;;;18.20;62.10;;;;;;5052735;28;20060;-65
2023/03/18 07:37:50;;;;;;;1.10;0.32;;;18.20;62.10;;;;;;5052640;28;20555;-64
2023/03/18 07:40:17;;;;;;;1.13;0.40;;;18.20;62.10;;;;;;5033459;28;20478;-64
2023/03/18 07:42:44;;;;;;;1.73;0.50;;;18.20;62.10;;;;;;5052503;28;20520;-65
2023/03/18 07:45:11;;;;;;;1.73;0.70;;;18.20;62.10;;;;;;5052265;28;20048;-64
2023/03/18 07:47:38;;;;;;;1.75;0.93;;;18.20;62.00;;;;;;5034380;28;20064;-64
2023/03/18 07:50:06;;;;;;;1.63;1.10;;;18.30;62.10;;;;;;5052193;28;20576;-64
2023/03/18 07:52:34;;;;;;;1.35;0.32;;;18.30;62.10;;;;;;5052565;28;20449;-64
2023/03/18 07:55:01;;;;;;;1.58;0.90;;;18.30;62.20;;;;;;5034030;28;20049;-64
2023/03/18 07:57:28;;;;;;;1.42;0.60;;;18.20;62.00;;;;;;5034459;28;20053;-64
2023/03/18 07:59:56;;;;;;;1.77;1.10;;;18.30;62.00;;;;;;5052000;28;20084;-64
2023/03/18 08:02:24;;;;;;;2.05;0.90;;;18.30;62.00;;;;;;5052159;28;20126;-64
2023/03/18 08:04:51;;;;;;;1.50;0.82;;;18.30;62.00;;;;;;5034141;28;20053;-64
2023/03/18 08:07:18;;;;;;;2.00;1.15;;;18.30;62.00;;;;;;5034180;28;20057;-64
2023/03/18 08:09:47;;;;;;;1.60;0.65;;;18.20;62.00;;;;;;5052174;28;20049;-64
2023/03/18 08:12:15;;;;;;;2.22;0.98;;;18.30;62.00;;;;;;5034227;28;20052;-64
2023/03/18 08:14:42;;;;;;;1.67;0.90;;;18.30;62.00;;;;;;5034243;28;20052;-64
2023/03/18 08:17:10;;;;;;;1.13;0.20;;;18.30;62.00;;;;;;5051609;28;20081;-64
2023/03/18 08:19:37;;;;;;;1.20;0.70;;;18.30;62.00;;;;;;5034113;28;20571;-64
2023/03/18 08:22:04;;;;;;;1.38;0.88;;;18.30;62.00;;;;;;5033904;28;20057;-64
2023/03/18 08:24:31;;;;;;;1.58;0.43;;;18.30;62.00;;;;;;5051609;28;20049;-64
2023/03/18 08:26:59;;;;;;;1.13;0.70;;;18.30;62.00;;;;;;5033614;28;20053;-64
2023/03/18 08:29:26;;;;;;;1.48;0.20;;;18.30;62.10;;;;;;5051439;28;20041;-64
2023/03/18 08:31:54;;;;;;;1.23;0.32;;;18.30;62.00;;;;;;5051341;28;20153;-64
2023/03/18 08:34:21;;;;;;;1.48;0.63;;;18.30;62.00;;;;;;5051684;28;20049;-64
2023/03/18 08:36:48;;;;;;;1.52;1.00;;;18.30;62.00;;;;;;5051321;28;20064;-64
2023/03/18 08:39:16;;;;;;;1.98;0.57;;;18.30;62.00;;;;;;5051404;28;20045;-64
2023/03/18 08:41:43;;;;;;;1.30;0.20;;;18.30;62.00;;;;;;5051320;28;20840;-64
2023/03/18 08:44:11;;;;;;;1.23;0.30;;;18.30;62.00;;;;;;5051275;28;20417;-64
2023/03/18 08:46:38;;;;;;;1.30;0.60;;;18.30;62.00;;;;;;5033106;28;20056;-64
2023/03/18 08:49:06;;;;;;;1.20;0.82;;;18.30;62.00;;;;;;5033244;28;20060;-64
2023/03/18 08:51:33;;;;;;;1.98;0.40;;;18.30;62.60;;;;;;5050856;28;20115;-64
2023/03/18 08:54:00;;;;;;;1.33;0.22;;;18.30;62.00;;;;;;5050985;28;20063;-64
2023/03/18 08:56:27;;;;;;;1.45;0.98;;;18.30;62.00;;;;;;5051071;28;20045;-64
2023/03/18 08:58:56;;;;;;;1.85;0.80;;;18.30;62.00;;;;;;5050888;28;20103;-64
2023/03/18 09:01:24;;;;;;;1.23;0.60;;;18.30;62.00;;;;;;5050955;28;20045;-64
2023/03/18 09:03:51;;;;;;;1.58;0.95;;;18.30;62.10;;;;;;5051158;28;20053;-64
2023/03/18 09:06:19;;;;;;;1.75;0.80;;;18.30;62.00;;;;;;5050744;28;20110;-64
2023/03/18 09:08:46;;;;;;;1.75;0.38;;;18.30;62.00;;;;;;5050641;28;20405;-64
2023/03/18 09:11:15;;;;;;;1.30;0.63;;;18.30;62.00;;;;;;5050810;28;20486;-64
2023/03/18 09:13:42;;;;;;;1.95;0.75;;;18.30;62.10;;;;;;5050629;28;20051;-64
2023/03/18 09:16:09;;;;;;;1.52;0.35;;;18.30;62.00;;;;;;5050433;28;20410;-64
2023/03/18 09:18:38;;;;;;;1.48;0.57;;;18.30;62.00;;;;;;5032573;28;20049;-64
2023/03/18 09:21:06;;;;;;;1.60;0.60;;;18.30;62.10;;;;;;5050782;28;20049;-64
2023/03/18 09:23:33;;;;;;;1.58;0.80;;;18.30;62.00;;;;;;5032766;28;20057;-64
2023/03/18 09:26:04;;;;;;;1.38;0.35;;;18.30;62.00;;;;;;5050476;28;20061;-64
2023/03/18 09:28:31;;;;;;;1.42;0.70;;;18.40;62.00;;;;;;5032417;28;20611;-64
2023/03/18 09:30:58;;;;;;;1.25;0.50;;;18.40;62.20;;;;;;5050220;28;20063;-64
2023/03/18 09:33:25;;;;;;;1.25;0.73;;;18.30;62.00;;;;;;5032489;28;20080;-64
2023/03/18 09:35:54;;;;;;;1.55;0.85;;;18.30;62.00;;;;;;5032290;28;20049;-64
2023/03/18 09:38:21;;;;;;;1.42;0.70;;;18.30;62.00;;;;;;5032361;28;20057;-63
2023/03/18 09:41:01;;;;;;;1.30;0.70;;;18.30;62.00;;;;;;5050171;28;20052;-64
2023/03/18 09:43:57;;;;;;;1.55;0.80;;;18.30;62.00;;;;;;5050105;28;20127;-64
2023/03/18 09:46:32;;;;;;;1.30;0.70;;;18.40;62.10;;;;;;5049829;28;20059;-64
2023/03/18 09:49:37;;;;;;;1.13;0.60;;;18.30;62.00;;;;;;5050254;28;20095;-64
2023/03/18 09:52:17;;;;;;;1.90;0.60;;;18.40;62.10;;;;;;5050064;28;20132;-64
2023/03/18 09:54:48;;;;;;;1.67;0.70;;;18.40;62.10;;;;;;5032325;28;20512;-64
2023/03/18 09:57:21;;;;;;;1.10;0.30;;;18.40;62.10;;;;;;5049919;28;20049;-63
2023/03/18 09:59:53;;;;;;;1.38;0.38;;;18.40;62.10;;;;;;5032178;28;20056;-64
2023/03/18 10:02:25;;;;;;;0.80;0.22;;;18.40;62.10;;;;;;5031121;28;20099;-64
2023/03/18 10:04:56;;;;;;;1.40;0.40;;;18.40;62.10;;;;;;5049999;28;20056;-64
2023/03/18 10:07:31;;;;;;;1.70;0.90;;;18.40;62.10;;;;;;5049796;28;20045;-64
2023/03/18 10:10:02;;;;;;;1.25;0.93;;;18.40;62.10;;;;;;5049892;28;20049;-64
2023/03/18 10:12:32;;;;;;;2.38;1.38;;;18.40;62.10;;;;;;5049993;28;20060;-64
2023/03/18 10:15:16;;;;;;;1.42;0.90;;;18.40;62.00;;;;;;5031670;28;20156;-64
2023/03/18 10:17:48;;;;;;;2.40;0.45;;;18.40;62.10;;;;;;5032065;28;20064;-64
2023/03/18 10:20:19;;;;;;;1.30;0.60;;;18.40;62.00;;;;;;5049716;28;20056;-64
2023/03/18 10:23:03;;;;;;;1.13;0.32;;;18.50;62.40;;;;;;5049926;28;20140;-64
2023/03/18 10:25:36;;;;;;;1.75;0.55;;;18.50;62.10;;;;;;5049892;28;20051;-64
2023/03/18 10:28:30;;;;;;;1.13;0.35;;;18.50;62.10;;;;;;5031652;28;20053;-64
2023/03/18 10:31:07;;;;;;;1.10;0.32;;;18.50;62.00;;;;;;5049794;28;20052;-64
2023/03/18 10:33:42;;;;;;;1.65;0.90;;;18.50;62.00;;;;;;5031986;28;20136;-64
2023/03/18 10:36:14;;;;;;;1.92;0.70;;;18.50;62.00;;;;;;5032061;28;20092;-64
2023/03/18 10:38:46;;;;;;;1.33;0.68;;;18.50;62.00;;;;;;5031966;28;20508;-64
2023/03/18 10:41:18;;;;;;;1.40;0.50;;;18.50;62.00;;;;;;5049550;28;20053;-64
2023/03/18 10:43:47;;;;;;;1.63;0.43;;;18.50;62.00;;;;;;5049481;28;20053;-65
2023/03/18 10:46:17;;;;;;;1.75;0.80;;;18.50;62.00;;;;;;5031747;28;20060;-63
2023/03/18 10:48:46;;;;;;;;;;;18.50;62.00;;;;;;5049981;28;20057;-64
2023/03/18 10:51:19;;;;;;;1.77;0.93;;;18.50;62.10;;;;;;5049578;28;19932;-63
2023/03/18 10:53:55;;;;;;;1.48;1.15;;;18.60;62.00;;;;;;5049794;28;20056;-63
2023/03/18 10:56:22;;;;;;;2.13;0.43;;;18.50;62.00;;;;;;5049533;28;20053;-63
2023/03/18 10:58:51;;;;;;;1.55;0.77;;;18.50;62.00;;;;;;5049772;28;20057;-64
2023/03/18 11:01:21;;;;;;;1.20;0.75;;;18.50;62.00;;;;;;5031475;28;20577;-64
2023/03/18 11:03:53;;;;;;;1.35;0.75;;;18.50;62.00;;;;;;5049935;28;20048;-64
2023/03/18 11:06:25;;;;;;;2.25;1.65;;;18.60;62.10;;;;;;5051510;28;20056;-64
2023/03/18 11:09:05;;;;;;;1.27;0.55;;;18.60;62.00;;;;;;5069098;28;20110;-63
2023/03/18 11:11:33;;;;;;;1.65;0.90;;;18.60;62.00;;;;;;5069271;28;20048;-63
2023/03/18 11:14:02;;;;;;;1.38;0.57;;;18.60;62.00;;;;;;5052548;28;20082;-63
2023/03/18 11:16:37;;;;;;;1.50;0.70;;;18.60;62.00;;;;;;5072568;28;20052;-63
2023/03/18 11:19:21;;;;;;;1.58;0.50;;;18.60;61.90;;;;;;5054863;28;20114;-63
2023/03/18 11:21:49;;;;;;;1.52;0.63;;;18.60;62.00;;;;;;5072712;28;20526;-64
2023/03/18 11:24:34;;;;;;;1.60;0.50;;;18.70;62.00;;;;;;5073158;28;20663;-63
2023/03/18 11:27:02;;;;;;;1.70;0.93;;;18.70;62.00;;;;;;5072925;28;20055;-63
2023/03/18 11:29:32;;;;;;;1.65;0.85;;;18.70;62.00;;;;;;5072609;28;20053;-63
2023/03/18 11:32:00;;;;;;;1.92;0.98;;;18.70;62.00;;;;;;5054179;28;20053;-64
2023/03/18 11:34:31;;;;;;;1.63;1.13;;;18.70;62.00;;;;;;5072930;28;20062;-64
2023/03/18 11:37:03;;;;;;;1.67;1.23;;;18.70;62.00;;;;;;5072458;28;20088;-64
2023/03/18 11:39:36;;;;;;;1.73;1.13;;;18.70;62.00;;;;;;5054398;28;20056;-65
2023/03/18 11:42:16;;;;;;;1.27;0.35;;;18.70;62.10;;;;;;5054508;28;20095;-64
2023/03/18 11:44:43;;;;;;;1.65;0.80;;;18.70;62.10;;;;;;5051171;28;20052;-65
2023/03/18 11:47:14;;;;;;;1.73;0.55;;;18.70;62.00;;;;;;5052132;28;20064;-64
2023/03/18 11:49:42;;;;;;;1.63;0.40;;;18.70;62.10;;;;;;5034164;28;20493;-64
2023/03/18 11:52:32;;;;;;;1.50;0.50;;;18.70;62.00;;;;;;5052248;28;20525;-64
2023/03/18 11:55:10;;;;;;;2.35;1.27;;;18.80;62.20;;;;;;5052132;28;20053;-64
2023/03/18 11:57:49;;;;;;;2.53;0.80;;;18.80;62.10;;;;;;5051988;28;20581;-64
2023/03/18 12:00:29;;;;;;;1.83;1.10;;;18.80;62.10;;;;;;5052079;28;20045;-64
2023/03/18 12:03:45;;;;;;;1.65;0.98;;;18.90;62.20;;;;;;5034350;28;20049;-64
2023/03/18 12:06:20;;;;;;;1.60;0.88;;;18.90;62.30;;;;;;5034201;28;20045;-64
2023/03/18 12:08:57;;;;;;;1.90;1.20;;;18.90;62.20;;;;;;5051829;28;20102;-65
2023/03/18 12:11:41;;;;;;;2.47;0.98;;;18.90;62.20;;;;;;5033977;28;20056;-64
2023/03/18 12:14:17;;;;;;;2.15;1.05;;;19.00;62.20;;;;;;5033869;28;20053;-64
2023/03/18 12:16:55;;;;;;;2.58;1.15;;;19.00;62.20;;;;;;5033797;28;20064;-64
2023/03/18 12:19:51;;;;;;;3.17;0.95;;;19.00;62.20;;;;;;5051804;28;20486;-66
2023/03/18 12:22:36;;;;;;;1.90;0.52;;;19.00;62.20;;;;;;5051767;28;20509;-65
2023/03/18 12:25:20;;;;;;;2.20;1.17;;;19.00;62.20;;;;;;5051020;28;20048;-64
2023/03/18 12:27:58;;;;;;;1.73;1.15;;;19.00;62.20;;;;;;5051362;28;20060;-64
2023/03/18 12:30:45;;;;;;;2.08;0.98;;;19.00;62.20;;;;;;5051565;28;20145;-64
2023/03/18 12:33:25;;;;;;;1.60;1.00;;;19.10;62.20;;;;;;5051191;28;20053;-64
2023/03/18 12:36:00;;;;;;;1.58;1.20;;;19.10;62.20;;;;;;5051640;28;20044;-65
2023/03/18 12:38:56;;;;;;;1.88;1.00;;;19.20;62.20;;;;;;5033653;28;20163;-64
2023/03/18 12:41:34;;;;;;;3.35;1.52;;;19.20;62.20;;;;;;5033614;28;20053;-64
2023/03/18 12:44:23;;;;;;;1.60;1.10;;;19.20;62.20;;;;;;5051241;28;20053;-64
2023/03/18 12:46:55;;;;;;;2.10;1.40;;;19.30;62.20;;;;;;5050844;28;20049;-64
2023/03/18 12:49:25;;;;;;;2.20;1.30;;;19.30;62.20;;;;;;5033146;28;20057;-64
2023/03/18 12:52:00;;;;;;;1.50;0.38;;;19.30;62.20;;;;;;5051361;28;20405;-64
2023/03/18 12:54:32;;;;;;;2.00;1.08;;;19.30;62.80;;;;;;5033205;28;20053;-65
2023/03/18 12:57:05;;;;;;;1.83;0.90;;;19.30;62.20;;;;;;5051054;28;20052;-64
2023/03/18 12:59:38;;;;;;;2.72;1.35;;;19.40;62.20;;;;;;5050774;28;20717;-65
2023/03/18 13:02:26;;;;;;;1.55;1.05;;;19.40;62.20;;;;;;5051008;28;20049;-64